sensor_id;sensor_type;location;lat;lon;timestamp;P1;durP1;ratioP1;P2;durP2;ratioP2
27375;SDS011;14844;51.302;6.354;2022-09-27T00:00:59;26.75;;;11.35;;
27375;SDS011;14844;51.302;6.354;2022-09-27T00:03:26;25.83;;;11.25;;
27375;SDS011;14844;51.302;6.354;2022-09-27T00:06:27;20.25;;;11.35;;
27375;SDS011;14844;51.302;6.354;2022-09-27T00:08:45;26.40;;;11.48;;
27375;SDS011;14844;51.302;6.354;2022-09-27T00:11:11;24.80;;;10.45;;
27375;SDS011;14844;51.302;6.354;2022-09-27T00:13:44;19.50;;;9.15;;
27375;SDS011;14844;51.302;6.354;2022-09-27T00:16:09;21.67;;;9.32;;
27375;SDS011;14844;51.302;6.354;2022-09-27T00:18:35;17.02;;;8.20;;
27375;SDS011;14844;51.302;6.354;2022-09-27T00:21:08;17.55;;;7.07;;
27375;SDS011;14844;51.302;6.354;2022-09-27T00:23:35;19.58;;;7.50;;
27375;SDS011;14844;51.302;6.354;2022-09-27T00:26:02;19.45;;;6.70;;
27375;SDS011;14844;51.302;6.354;2022-09-27T00:28:28;21.17;;;6.25;;
27375;SDS011;14844;51.302;6.354;2022-09-27T00:30:55;25.10;;;6.80;;
27375;SDS011;14844;51.302;6.354;2022-09-27T00:33:20;13.75;;;5.90;;
27375;SDS011;14844;51.302;6.354;2022-09-27T00:35:46;17.30;;;6.53;;
27375;SDS011;14844;51.302;6.354;2022-09-27T00:38:12;15.85;;;6.03;;
27375;SDS011;14844;51.302;6.354;2022-09-27T00:40:38;17.55;;;6.25;;
27375;SDS011;14844;51.302;6.354;2022-09-27T00:43:17;15.93;;;5.93;;
27375;SDS011;14844;51.302;6.354;2022-09-27T00:45:49;16.35;;;6.47;;
27375;SDS011;14844;51.302;6.354;2022-09-27T00:48:20;16.92;;;7.30;;
27375;SDS011;14844;51.302;6.354;2022-09-27T00:50:49;20.73;;;8.02;;
27375;SDS011;14844;51.302;6.354;2022-09-27T00:53:18;19.08;;;7.72;;
27375;SDS011;14844;51.302;6.354;2022-09-27T00:55:52;20.52;;;8.40;;
27375;SDS011;14844;51.302;6.354;2022-09-27T00:58:23;18.88;;;8.48;;
27375;SDS011;14844;51.302;6.354;2022-09-27T01:00:53;26.02;;;9.63;;
27375;SDS011;14844;51.302;6.354;2022-09-27T01:04:06;19.30;;;9.55;;
27375;SDS011;14844;51.302;6.354;2022-09-27T01:06:20;22.23;;;10.02;;
27375;SDS011;14844;51.302;6.354;2022-09-27T01:08:46;21.88;;;10.15;;
27375;SDS011;14844;51.302;6.354;2022-09-27T01:22:34;22.27;;;11.07;;
27375;SDS011;14844;51.302;6.354;2022-09-27T01:25:35;23.08;;;11.27;;
27375;SDS011;14844;51.302;6.354;2022-09-27T01:31:20;25.45;;;10.90;;
27375;SDS011;14844;51.302;6.354;2022-09-27T01:34:00;19.42;;;11.43;;
27375;SDS011;14844;51.302;6.354;2022-09-27T01:36:36;21.13;;;11.93;;
27375;SDS011;14844;51.302;6.354;2022-09-27T01:42:21;21.65;;;11.57;;
27375;SDS011;14844;51.302;6.354;2022-09-27T01:45:13;24.52;;;11.40;;
27375;SDS011;14844;51.302;6.354;2022-09-27T01:50:39;24.02;;;10.27;;
27375;SDS011;14844;51.302;6.354;2022-09-27T01:53:17;22.02;;;10.73;;
27375;SDS011;14844;51.302;6.354;2022-09-27T01:55:57;20.05;;;10.55;;
27375;SDS011;14844;51.302;6.354;2022-09-27T01:58:28;18.95;;;10.93;;
27375;SDS011;14844;51.302;6.354;2022-09-27T02:01:05;22.13;;;10.40;;
27375;SDS011;14844;51.302;6.354;2022-09-27T02:03:34;17.92;;;9.93;;
27375;SDS011;14844;51.302;6.354;2022-09-27T02:06:02;24.65;;;10.00;;
27375;SDS011;14844;51.302;6.354;2022-09-27T02:08:41;17.42;;;9.15;;
27375;SDS011;14844;51.302;6.354;2022-09-27T02:11:26;19.88;;;8.90;;
27375;SDS011;14844;51.302;6.354;2022-09-27T02:22:15;20.45;;;7.82;;
27375;SDS011;14844;51.302;6.354;2022-09-27T02:24:46;14.88;;;7.40;;
27375;SDS011;14844;51.302;6.354;2022-09-27T02:28:07;15.88;;;6.28;;
27375;SDS011;14844;51.302;6.354;2022-09-27T02:30:17;13.93;;;6.88;;
27375;SDS011;14844;51.302;6.354;2022-09-27T02:32:44;11.43;;;5.30;;
27375;SDS011;14844;51.302;6.354;2022-09-27T02:35:14;17.17;;;5.60;;
27375;SDS011;14844;51.302;6.354;2022-09-27T02:37:43;12.98;;;4.63;;
27375;SDS011;14844;51.302;6.354;2022-09-27T02:40:09;14.25;;;4.70;;
27375;SDS011;14844;51.302;6.354;2022-09-27T02:42:35;12.88;;;4.70;;
27375;SDS011;14844;51.302;6.354;2022-09-27T02:45:02;9.73;;;3.97;;
27375;SDS011;14844;51.302;6.354;2022-09-27T02:47:48;12.82;;;4.53;;
27375;SDS011;14844;51.302;6.354;2022-09-27T02:59:06;8.02;;;3.60;;
27375;SDS011;14844;51.302;6.354;2022-09-27T03:04:36;15.68;;;4.95;;
27375;SDS011;14844;51.302;6.354;2022-09-27T03:07:09;19.73;;;5.72;;
27375;SDS011;14844;51.302;6.354;2022-09-27T03:09:42;15.15;;;5.30;;
27375;SDS011;14844;51.302;6.354;2022-09-27T03:12:09;9.18;;;4.70;;
27375;SDS011;14844;51.302;6.354;2022-09-27T03:14:35;8.85;;;4.65;;
27375;SDS011;14844;51.302;6.354;2022-09-27T03:17:00;11.88;;;5.22;;
27375;SDS011;14844;51.302;6.354;2022-09-27T03:19:26;15.50;;;5.00;;
27375;SDS011;14844;51.302;6.354;2022-09-27T03:21:52;14.27;;;5.38;;
27375;SDS011;14844;51.302;6.354;2022-09-27T03:24:17;18.17;;;6.00;;
27375;SDS011;14844;51.302;6.354;2022-09-27T03:26:43;13.63;;;4.70;;
27375;SDS011;14844;51.302;6.354;2022-09-27T03:29:09;16.92;;;5.53;;
27375;SDS011;14844;51.302;6.354;2022-09-27T03:31:35;14.57;;;5.00;;
27375;SDS011;14844;51.302;6.354;2022-09-27T03:34:00;11.90;;;4.90;;
27375;SDS011;14844;51.302;6.354;2022-09-27T03:36:26;15.77;;;4.65;;
27375;SDS011;14844;51.302;6.354;2022-09-27T03:38:52;15.07;;;4.28;;
27375;SDS011;14844;51.302;6.354;2022-09-27T03:41:17;10.40;;;4.00;;
27375;SDS011;14844;51.302;6.354;2022-09-27T03:43:43;13.73;;;3.50;;
27375;SDS011;14844;51.302;6.354;2022-09-27T03:46:08;14.93;;;3.83;;
27375;SDS011;14844;51.302;6.354;2022-09-27T03:48:34;10.40;;;3.28;;
27375;SDS011;14844;51.302;6.354;2022-09-27T03:50:59;10.90;;;3.25;;
27375;SDS011;14844;51.302;6.354;2022-09-27T03:53:25;13.43;;;2.67;;
27375;SDS011;14844;51.302;6.354;2022-09-27T03:55:51;9.32;;;2.55;;
27375;SDS011;14844;51.302;6.354;2022-09-27T03:58:16;13.45;;;2.70;;
27375;SDS011;14844;51.302;6.354;2022-09-27T04:00:42;14.95;;;2.55;;
27375;SDS011;14844;51.302;6.354;2022-09-27T04:03:10;9.68;;;2.30;;
27375;SDS011;14844;51.302;6.354;2022-09-27T04:05:36;13.23;;;2.70;;
27375;SDS011;14844;51.302;6.354;2022-09-27T04:08:01;11.95;;;2.60;;
27375;SDS011;14844;51.302;6.354;2022-09-27T04:10:27;13.73;;;3.35;;
27375;SDS011;14844;51.302;6.354;2022-09-27T04:12:53;19.92;;;4.43;;
27375;SDS011;14844;51.302;6.354;2022-09-27T04:15:18;10.80;;;1.70;;
27375;SDS011;14844;51.302;6.354;2022-09-27T04:17:45;7.95;;;1.95;;
27375;SDS011;14844;51.302;6.354;2022-09-27T04:20:11;11.73;;;1.80;;
27375;SDS011;14844;51.302;6.354;2022-09-27T04:22:39;14.93;;;2.28;;
27375;SDS011;14844;51.302;6.354;2022-09-27T04:25:08;12.02;;;2.38;;
27375;SDS011;14844;51.302;6.354;2022-09-27T04:27:34;8.60;;;2.20;;
27375;SDS011;14844;51.302;6.354;2022-09-27T04:29:59;11.52;;;2.00;;
27375;SDS011;14844;51.302;6.354;2022-09-27T04:32:39;10.95;;;2.28;;
27375;SDS011;14844;51.302;6.354;2022-09-27T04:35:30;10.98;;;2.13;;
27375;SDS011;14844;51.302;6.354;2022-09-27T04:38:15;7.35;;;2.28;;
27375;SDS011;14844;51.302;6.354;2022-09-27T04:40:40;16.17;;;2.50;;
27375;SDS011;14844;51.302;6.354;2022-09-27T04:43:06;8.63;;;2.40;;
27375;SDS011;14844;51.302;6.354;2022-09-27T04:45:31;14.77;;;2.50;;
27375;SDS011;14844;51.302;6.354;2022-09-27T04:47:57;9.85;;;2.30;;
27375;SDS011;14844;51.302;6.354;2022-09-27T04:50:23;9.77;;;1.98;;
27375;SDS011;14844;51.302;6.354;2022-09-27T04:52:49;11.43;;;1.92;;
27375;SDS011;14844;51.302;6.354;2022-09-27T04:55:16;8.10;;;1.90;;
27375;SDS011;14844;51.302;6.354;2022-09-27T04:57:42;8.75;;;1.60;;
27375;SDS011;14844;51.302;6.354;2022-09-27T05:00:08;10.82;;;1.83;;
27375;SDS011;14844;51.302;6.354;2022-09-27T05:02:34;11.45;;;1.92;;
27375;SDS011;14844;51.302;6.354;2022-09-27T05:04:59;8.98;;;1.75;;
27375;SDS011;14844;51.302;6.354;2022-09-27T05:07:25;6.57;;;1.48;;
27375;SDS011;14844;51.302;6.354;2022-09-27T05:09:51;10.50;;;1.60;;
27375;SDS011;14844;51.302;6.354;2022-09-27T05:12:17;6.57;;;1.58;;
27375;SDS011;14844;51.302;6.354;2022-09-27T05:14:43;8.32;;;1.92;;
27375;SDS011;14844;51.302;6.354;2022-09-27T05:17:09;11.73;;;1.58;;
27375;SDS011;14844;51.302;6.354;2022-09-27T05:19:35;4.80;;;1.25;;
27375;SDS011;14844;51.302;6.354;2022-09-27T05:22:03;4.93;;;1.20;;
27375;SDS011;14844;51.302;6.354;2022-09-27T05:24:32;7.22;;;1.50;;
27375;SDS011;14844;51.302;6.354;2022-09-27T05:26:58;6.28;;;1.20;;
27375;SDS011;14844;51.302;6.354;2022-09-27T05:29:24;8.35;;;1.70;;
27375;SDS011;14844;51.302;6.354;2022-09-27T05:31:50;5.32;;;1.10;;
27375;SDS011;14844;51.302;6.354;2022-09-27T05:34:15;4.55;;;1.27;;
27375;SDS011;14844;51.302;6.354;2022-09-27T05:36:45;7.80;;;1.58;;
27375;SDS011;14844;51.302;6.354;2022-09-27T05:39:12;8.55;;;1.02;;
27375;SDS011;14844;51.302;6.354;2022-09-27T05:41:40;5.53;;;0.90;;
27375;SDS011;14844;51.302;6.354;2022-09-27T05:44:06;5.30;;;1.10;;
27375;SDS011;14844;51.302;6.354;2022-09-27T05:46:32;5.53;;;1.30;;
27375;SDS011;14844;51.302;6.354;2022-09-27T05:48:57;6.10;;;1.05;;
27375;SDS011;14844;51.302;6.354;2022-09-27T05:51:23;5.95;;;1.13;;
27375;SDS011;14844;51.302;6.354;2022-09-27T05:53:48;8.13;;;1.30;;
27375;SDS011;14844;51.302;6.354;2022-09-27T05:56:14;7.13;;;1.40;;
27375;SDS011;14844;51.302;6.354;2022-09-27T05:58:41;5.63;;;1.33;;
27375;SDS011;14844;51.302;6.354;2022-09-27T06:01:06;7.05;;;1.77;;
27375;SDS011;14844;51.302;6.354;2022-09-27T06:03:33;6.60;;;1.17;;
27375;SDS011;14844;51.302;6.354;2022-09-27T06:06:00;6.95;;;1.33;;
27375;SDS011;14844;51.302;6.354;2022-09-27T06:11:36;9.10;;;1.67;;
27375;SDS011;14844;51.302;6.354;2022-09-27T06:14:01;5.50;;;1.17;;
27375;SDS011;14844;51.302;6.354;2022-09-27T06:16:27;7.38;;;1.60;;
27375;SDS011;14844;51.302;6.354;2022-09-27T06:18:52;4.28;;;1.20;;
27375;SDS011;14844;51.302;6.354;2022-09-27T06:21:18;7.47;;;1.30;;
27375;SDS011;14844;51.302;6.354;2022-09-27T06:23:44;10.52;;;1.52;;
27375;SDS011;14844;51.302;6.354;2022-09-27T06:26:09;5.95;;;1.40;;
27375;SDS011;14844;51.302;6.354;2022-09-27T06:28:36;7.30;;;1.63;;
27375;SDS011;14844;51.302;6.354;2022-09-27T06:31:03;5.70;;;1.58;;
27375;SDS011;14844;51.302;6.354;2022-09-27T06:33:31;5.53;;;1.40;;
27375;SDS011;14844;51.302;6.354;2022-09-27T06:35:59;7.35;;;1.60;;
27375;SDS011;14844;51.302;6.354;2022-09-27T06:38:26;8.18;;;1.85;;
27375;SDS011;14844;51.302;6.354;2022-09-27T06:40:52;7.13;;;1.52;;
27375;SDS011;14844;51.302;6.354;2022-09-27T06:43:18;6.28;;;1.38;;
27375;SDS011;14844;51.302;6.354;2022-09-27T06:45:45;4.68;;;1.27;;
27375;SDS011;14844;51.302;6.354;2022-09-27T06:48:11;7.38;;;1.30;;
27375;SDS011;14844;51.302;6.354;2022-09-27T06:50:39;4.55;;;1.40;;
27375;SDS011;14844;51.302;6.354;2022-09-27T06:53:08;6.78;;;1.70;;
27375;SDS011;14844;51.302;6.354;2022-09-27T06:55:34;5.22;;;1.60;;
27375;SDS011;14844;51.302;6.354;2022-09-27T06:58:01;4.65;;;1.10;;
27375;SDS011;14844;51.302;6.354;2022-09-27T07:00:48;6.53;;;1.60;;
27375;SDS011;14844;51.302;6.354;2022-09-27T07:03:15;7.28;;;1.63;;
27375;SDS011;14844;51.302;6.354;2022-09-27T07:05:41;5.25;;;1.90;;
27375;SDS011;14844;51.302;6.354;2022-09-27T07:08:08;6.93;;;1.92;;
27375;SDS011;14844;51.302;6.354;2022-09-27T07:10:37;6.35;;;1.30;;
27375;SDS011;14844;51.302;6.354;2022-09-27T07:13:07;2.60;;;1.30;;
27375;SDS011;14844;51.302;6.354;2022-09-27T07:15:34;4.50;;;1.52;;
27375;SDS011;14844;51.302;6.354;2022-09-27T07:18:01;6.13;;;1.40;;
27375;SDS011;14844;51.302;6.354;2022-09-27T07:20:28;5.07;;;1.50;;
27375;SDS011;14844;51.302;6.354;2022-09-27T07:22:54;10.80;;;1.50;;
27375;SDS011;14844;51.302;6.354;2022-09-27T07:25:20;2.50;;;1.10;;
27375;SDS011;14844;51.302;6.354;2022-09-27T07:27:46;6.88;;;1.48;;
27375;SDS011;14844;51.302;6.354;2022-09-27T07:30:13;4.70;;;1.17;;
27375;SDS011;14844;51.302;6.354;2022-09-27T07:32:39;2.53;;;0.98;;
27375;SDS011;14844;51.302;6.354;2022-09-27T07:35:05;2.53;;;0.98;;
27375;SDS011;14844;51.302;6.354;2022-09-27T07:37:32;2.78;;;0.80;;
27375;SDS011;14844;51.302;6.354;2022-09-27T07:39:59;6.65;;;1.13;;
27375;SDS011;14844;51.302;6.354;2022-09-27T07:42:25;4.20;;;0.90;;
27375;SDS011;14844;51.302;6.354;2022-09-27T07:44:54;2.58;;;0.75;;
27375;SDS011;14844;51.302;6.354;2022-09-27T07:47:21;2.53;;;0.63;;
27375;SDS011;14844;51.302;6.354;2022-09-27T07:49:51;6.38;;;1.02;;
27375;SDS011;14844;51.302;6.354;2022-09-27T07:52:17;3.90;;;0.80;;
27375;SDS011;14844;51.302;6.354;2022-09-27T07:54:44;4.05;;;1.52;;
27375;SDS011;14844;51.302;6.354;2022-09-27T07:57:10;1.63;;;0.80;;
27375;SDS011;14844;51.302;6.354;2022-09-27T07:59:35;2.35;;;0.98;;
27375;SDS011;14844;51.302;6.354;2022-09-27T08:02:01;4.28;;;1.10;;
27375;SDS011;14844;51.302;6.354;2022-09-27T08:04:27;2.35;;;0.80;;
27375;SDS011;14844;51.302;6.354;2022-09-27T08:06:53;7.75;;;1.25;;
27375;SDS011;14844;51.302;6.354;2022-09-27T08:09:18;6.35;;;0.95;;
27375;SDS011;14844;51.302;6.354;2022-09-27T08:11:44;2.05;;;0.77;;
27375;SDS011;14844;51.302;6.354;2022-09-27T08:14:10;4.75;;;0.93;;
27375;SDS011;14844;51.302;6.354;2022-09-27T08:16:36;2.60;;;0.82;;
27375;SDS011;14844;51.302;6.354;2022-09-27T08:19:01;5.07;;;1.10;;
27375;SDS011;14844;51.302;6.354;2022-09-27T08:21:27;4.25;;;1.20;;
27375;SDS011;14844;51.302;6.354;2022-09-27T08:23:54;6.45;;;1.40;;
27375;SDS011;14844;51.302;6.354;2022-09-27T08:26:20;4.70;;;1.60;;
27375;SDS011;14844;51.302;6.354;2022-09-27T08:28:46;7.30;;;1.85;;
27375;SDS011;14844;51.302;6.354;2022-09-27T08:31:12;11.45;;;1.92;;
27375;SDS011;14844;51.302;6.354;2022-09-27T08:33:38;3.80;;;1.70;;
27375;SDS011;14844;51.302;6.354;2022-09-27T08:36:03;7.75;;;2.13;;
27375;SDS011;14844;51.302;6.354;2022-09-27T08:38:35;7.05;;;1.73;;
27375;SDS011;14844;51.302;6.354;2022-09-27T08:41:05;4.32;;;2.00;;
27375;SDS011;14844;51.302;6.354;2022-09-27T08:46:58;7.20;;;2.53;;
27375;SDS011;14844;51.302;6.354;2022-09-27T08:49:38;4.05;;;2.55;;
27375;SDS011;14844;51.302;6.354;2022-09-27T08:53:01;7.63;;;2.65;;
27375;SDS011;14844;51.302;6.354;2022-09-27T08:55:24;6.95;;;3.33;;
27375;SDS011;14844;51.302;6.354;2022-09-27T08:58:12;10.40;;;3.30;;
27375;SDS011;14844;51.302;6.354;2022-09-27T09:00:43;6.30;;;2.75;;
27375;SDS011;14844;51.302;6.354;2022-09-27T09:03:15;7.68;;;3.22;;
27375;SDS011;14844;51.302;6.354;2022-09-27T09:05:44;7.38;;;3.17;;
27375;SDS011;14844;51.302;6.354;2022-09-27T09:14:43;8.25;;;3.35;;
27375;SDS011;14844;51.302;6.354;2022-09-27T09:25:41;6.40;;;3.00;;
27375;SDS011;14844;51.302;6.354;2022-09-27T09:33:43;4.90;;;2.35;;
27375;SDS011;14844;51.302;6.354;2022-09-27T09:36:29;5.57;;;2.13;;
27375;SDS011;14844;51.302;6.354;2022-09-27T09:39:01;5.00;;;2.20;;
27375;SDS011;14844;51.302;6.354;2022-09-27T09:41:33;7.78;;;2.40;;
27375;SDS011;14844;51.302;6.354;2022-09-27T09:44:56;5.15;;;1.80;;
27375;SDS011;14844;51.302;6.354;2022-09-27T09:47:39;5.32;;;2.22;;
27375;SDS011;14844;51.302;6.354;2022-09-27T09:52:43;5.15;;;1.80;;
27375;SDS011;14844;51.302;6.354;2022-09-27T09:55:22;5.50;;;2.15;;
27375;SDS011;14844;51.302;6.354;2022-09-27T10:00:27;5.65;;;2.20;;
27375;SDS011;14844;51.302;6.354;2022-09-27T10:02:53;4.95;;;2.53;;
27375;SDS011;14844;51.302;6.354;2022-09-27T10:05:23;5.55;;;3.28;;
27375;SDS011;14844;51.302;6.354;2022-09-27T10:07:51;7.20;;;3.40;;
27375;SDS011;14844;51.302;6.354;2022-09-27T10:10:20;5.95;;;3.38;;
27375;SDS011;14844;51.302;6.354;2022-09-27T10:12:46;9.52;;;4.28;;
27375;SDS011;14844;51.302;6.354;2022-09-27T10:15:13;8.48;;;4.30;;
27375;SDS011;14844;51.302;6.354;2022-09-27T10:17:44;9.80;;;5.13;;
27375;SDS011;14844;51.302;6.354;2022-09-27T10:20:25;9.38;;;5.63;;
27375;SDS011;14844;51.302;6.354;2022-09-27T10:23:12;10.32;;;5.22;;
27375;SDS011;14844;51.302;6.354;2022-09-27T10:31:12;8.65;;;5.05;;
27375;SDS011;14844;51.302;6.354;2022-09-27T10:36:27;9.40;;;4.40;;
27375;SDS011;14844;51.302;6.354;2022-09-27T10:38:55;6.25;;;4.25;;
27375;SDS011;14844;51.302;6.354;2022-09-27T10:41:32;6.53;;;4.20;;
27375;SDS011;14844;51.302;6.354;2022-09-27T10:46:40;9.98;;;4.63;;
27375;SDS011;14844;51.302;6.354;2022-09-27T10:49:09;8.90;;;4.03;;
27375;SDS011;14844;51.302;6.354;2022-09-27T10:51:49;7.63;;;4.03;;
27375;SDS011;14844;51.302;6.354;2022-09-27T10:54:21;8.17;;;3.67;;
27375;SDS011;14844;51.302;6.354;2022-09-27T10:57:00;7.65;;;3.80;;
27375;SDS011;14844;51.302;6.354;2022-09-27T10:59:29;5.45;;;2.75;;
27375;SDS011;14844;51.302;6.354;2022-09-27T11:01:58;7.03;;;2.92;;
27375;SDS011;14844;51.302;6.354;2022-09-27T11:04:36;5.88;;;3.00;;
27375;SDS011;14844;51.302;6.354;2022-09-27T11:07:12;9.75;;;3.30;;
27375;SDS011;14844;51.302;6.354;2022-09-27T11:09:44;9.48;;;3.40;;
27375;SDS011;14844;51.302;6.354;2022-09-27T11:12:11;9.23;;;3.65;;
27375;SDS011;14844;51.302;6.354;2022-09-27T11:14:38;7.15;;;3.42;;
27375;SDS011;14844;51.302;6.354;2022-09-27T11:17:07;8.30;;;3.30;;
27375;SDS011;14844;51.302;6.354;2022-09-27T11:25:17;7.43;;;3.08;;
27375;SDS011;14844;51.302;6.354;2022-09-27T11:33:34;7.70;;;3.40;;
27375;SDS011;14844;51.302;6.354;2022-09-27T11:36:13;5.80;;;3.45;;
27375;SDS011;14844;51.302;6.354;2022-09-27T11:39:08;9.93;;;3.42;;
27375;SDS011;14844;51.302;6.354;2022-09-27T11:47:08;4.85;;;3.53;;
27375;SDS011;14844;51.302;6.354;2022-09-27T11:55:35;5.07;;;3.00;;
27375;SDS011;14844;51.302;6.354;2022-09-27T11:58:15;4.80;;;3.28;;
27375;SDS011;14844;51.302;6.354;2022-09-27T12:09:08;5.40;;;2.65;;
27375;SDS011;14844;51.302;6.354;2022-09-27T12:11:45;5.32;;;2.60;;
27375;SDS011;14844;51.302;6.354;2022-09-27T12:14:19;3.53;;;2.10;;
27375;SDS011;14844;51.302;6.354;2022-09-27T12:16:54;3.47;;;1.65;;
27375;SDS011;14844;51.302;6.354;2022-09-27T12:19:25;2.42;;;1.25;;
27375;SDS011;14844;51.302;6.354;2022-09-27T12:21:59;2.03;;;1.05;;
27375;SDS011;14844;51.302;6.354;2022-09-27T12:24:28;1.25;;;0.93;;
27375;SDS011;14844;51.302;6.354;2022-09-27T12:26:56;1.05;;;0.70;;
27375;SDS011;14844;51.302;6.354;2022-09-27T12:29:34;1.92;;;0.98;;
27375;SDS011;14844;51.302;6.354;2022-09-27T12:32:48;1.42;;;0.68;;
27375;SDS011;14844;51.302;6.354;2022-09-27T12:35:21;1.35;;;0.52;;
27375;SDS011;14844;51.302;6.354;2022-09-27T12:40:33;0.57;;;0.25;;
27375;SDS011;14844;51.302;6.354;2022-09-27T12:43:04;0.30;;;0.20;;
27375;SDS011;14844;51.302;6.354;2022-09-27T12:45:40;0.90;;;0.25;;
27375;SDS011;14844;51.302;6.354;2022-09-27T12:48:25;1.67;;;0.47;;
27375;SDS011;14844;51.302;6.354;2022-09-27T12:51:12;0.88;;;0.40;;
27375;SDS011;14844;51.302;6.354;2022-09-27T12:56:48;1.35;;;0.25;;
27375;SDS011;14844;51.302;6.354;2022-09-27T13:02:08;0.73;;;0.30;;
27375;SDS011;14844;51.302;6.354;2022-09-27T13:10:52;0.77;;;0.40;;
27375;SDS011;14844;51.302;6.354;2022-09-27T13:13:42;1.55;;;0.35;;
27375;SDS011;14844;51.302;6.354;2022-09-27T13:16:08;0.80;;;0.32;;
27375;SDS011;14844;51.302;6.354;2022-09-27T13:21:09;0.65;;;0.30;;
27375;SDS011;14844;51.302;6.354;2022-09-27T13:28:34;1.00;;;0.30;;
27375;SDS011;14844;51.302;6.354;2022-09-27T13:45:29;2.42;;;0.70;;
27375;SDS011;14844;51.302;6.354;2022-09-27T13:48:07;2.60;;;0.60;;
27375;SDS011;14844;51.302;6.354;2022-09-27T13:50:47;3.60;;;0.50;;
27375;SDS011;14844;51.302;6.354;2022-09-27T13:53:36;2.45;;;0.70;;
27375;SDS011;14844;51.302;6.354;2022-09-27T13:56:03;4.03;;;0.60;;
27375;SDS011;14844;51.302;6.354;2022-09-27T13:58:41;1.63;;;0.60;;
27375;SDS011;14844;51.302;6.354;2022-09-27T14:01:28;3.13;;;0.90;;
27375;SDS011;14844;51.302;6.354;2022-09-27T14:04:09;3.30;;;1.05;;
27375;SDS011;14844;51.302;6.354;2022-09-27T14:06:42;3.15;;;0.90;;
27375;SDS011;14844;51.302;6.354;2022-09-27T14:09:19;7.07;;;0.82;;
27375;SDS011;14844;51.302;6.354;2022-09-27T14:11:49;3.20;;;0.98;;
27375;SDS011;14844;51.302;6.354;2022-09-27T14:14:21;8.68;;;1.20;;
27375;SDS011;14844;51.302;6.354;2022-09-27T14:16:48;4.68;;;1.00;;
27375;SDS011;14844;51.302;6.354;2022-09-27T14:19:16;4.35;;;0.98;;
27375;SDS011;14844;51.302;6.354;2022-09-27T14:21:43;7.47;;;1.35;;
27375;SDS011;14844;51.302;6.354;2022-09-27T14:24:20;4.55;;;1.20;;
27375;SDS011;14844;51.302;6.354;2022-09-27T14:26:48;6.93;;;1.20;;
27375;SDS011;14844;51.302;6.354;2022-09-27T14:29:41;3.60;;;0.90;;
27375;SDS011;14844;51.302;6.354;2022-09-27T14:32:22;4.80;;;1.30;;
27375;SDS011;14844;51.302;6.354;2022-09-27T14:37:56;3.70;;;1.30;;
27375;SDS011;14844;51.302;6.354;2022-09-27T14:40:31;6.63;;;1.20;;
27375;SDS011;14844;51.302;6.354;2022-09-27T14:43:01;3.35;;;1.10;;
27375;SDS011;14844;51.302;6.354;2022-09-27T14:48:01;5.47;;;1.50;;
27375;SDS011;14844;51.302;6.354;2022-09-27T14:50:41;6.70;;;2.10;;
27375;SDS011;14844;51.302;6.354;2022-09-27T14:53:36;4.97;;;1.77;;
27375;SDS011;14844;51.302;6.354;2022-09-27T14:56:09;5.15;;;2.10;;
27375;SDS011;14844;51.302;6.354;2022-09-27T14:58:41;8.43;;;2.72;;
27375;SDS011;14844;51.302;6.354;2022-09-27T15:01:13;7.72;;;1.95;;
27375;SDS011;14844;51.302;6.354;2022-09-27T15:03:40;7.32;;;2.58;;
27375;SDS011;14844;51.302;6.354;2022-09-27T15:06:06;8.98;;;2.83;;
27375;SDS011;14844;51.302;6.354;2022-09-27T15:08:32;11.10;;;3.78;;
27375;SDS011;14844;51.302;6.354;2022-09-27T15:10:58;9.43;;;4.03;;
27375;SDS011;14844;51.302;6.354;2022-09-27T15:13:25;15.15;;;5.13;;
27375;SDS011;14844;51.302;6.354;2022-09-27T15:15:52;12.23;;;4.32;;
27375;SDS011;14844;51.302;6.354;2022-09-27T15:18:29;9.65;;;3.05;;
27375;SDS011;14844;51.302;6.354;2022-09-27T15:20:57;8.63;;;2.90;;
27375;SDS011;14844;51.302;6.354;2022-09-27T15:26:06;5.53;;;2.67;;
27375;SDS011;14844;51.302;6.354;2022-09-27T15:28:41;6.35;;;1.70;;
27375;SDS011;14844;51.302;6.354;2022-09-27T15:31:12;4.60;;;1.50;;
27375;SDS011;14844;51.302;6.354;2022-09-27T15:33:38;5.93;;;1.60;;
27375;SDS011;14844;51.302;6.354;2022-09-27T15:36:05;4.22;;;1.42;;
27375;SDS011;14844;51.302;6.354;2022-09-27T15:38:38;3.40;;;1.00;;
27375;SDS011;14844;51.302;6.354;2022-09-27T15:41:15;2.45;;;0.88;;
27375;SDS011;14844;51.302;6.354;2022-09-27T15:43:43;2.78;;;0.90;;
27375;SDS011;14844;51.302;6.354;2022-09-27T15:51:42;3.38;;;1.00;;
27375;SDS011;14844;51.302;6.354;2022-09-27T15:54:09;3.60;;;1.02;;
27375;SDS011;14844;51.302;6.354;2022-09-27T15:56:35;4.47;;;1.08;;
27375;SDS011;14844;51.302;6.354;2022-09-27T15:59:02;5.53;;;1.10;;
27375;SDS011;14844;51.302;6.354;2022-09-27T16:01:28;5.32;;;0.98;;
27375;SDS011;14844;51.302;6.354;2022-09-27T16:03:54;5.40;;;1.30;;
27375;SDS011;14844;51.302;6.354;2022-09-27T16:06:26;6.25;;;1.20;;
27375;SDS011;14844;51.302;6.354;2022-09-27T16:08:53;5.15;;;1.05;;
27375;SDS011;14844;51.302;6.354;2022-09-27T16:11:18;4.40;;;1.38;;
27375;SDS011;14844;51.302;6.354;2022-09-27T16:13:44;4.63;;;1.15;;
27375;SDS011;14844;51.302;6.354;2022-09-27T16:16:16;8.43;;;1.80;;
27375;SDS011;14844;51.302;6.354;2022-09-27T16:18:44;5.80;;;1.75;;
27375;SDS011;14844;51.302;6.354;2022-09-27T16:21:10;61.20;;;30.10;;
27375;SDS011;14844;51.302;6.354;2022-09-27T16:23:36;71.72;;;29.58;;
27375;SDS011;14844;51.302;6.354;2022-09-27T16:26:01;135.85;;;49.25;;
27375;SDS011;14844;51.302;6.354;2022-09-27T16:28:27;196.60;;;69.88;;
27375;SDS011;14844;51.302;6.354;2022-09-27T16:30:53;233.07;;;84.95;;
27375;SDS011;14844;51.302;6.354;2022-09-27T16:33:18;52.03;;;21.80;;
27375;SDS011;14844;51.302;6.354;2022-09-27T16:35:44;10.80;;;4.78;;
27375;SDS011;14844;51.302;6.354;2022-09-27T16:38:09;26.10;;;12.38;;
27375;SDS011;14844;51.302;6.354;2022-09-27T16:40:35;17.30;;;5.65;;
27375;SDS011;14844;51.302;6.354;2022-09-27T16:43:01;24.98;;;15.77;;
27375;SDS011;14844;51.302;6.354;2022-09-27T16:45:31;13.82;;;5.80;;
27375;SDS011;14844;51.302;6.354;2022-09-27T16:47:59;11.93;;;4.95;;
27375;SDS011;14844;51.302;6.354;2022-09-27T16:50:25;8.38;;;2.78;;
27375;SDS011;14844;51.302;6.354;2022-09-27T16:53:09;9.00;;;2.40;;
27375;SDS011;14844;51.302;6.354;2022-09-27T16:55:35;7.85;;;2.25;;
27375;SDS011;14844;51.302;6.354;2022-09-27T16:58:00;11.57;;;2.38;;
27375;SDS011;14844;51.302;6.354;2022-09-27T17:00:29;11.23;;;2.55;;
27375;SDS011;14844;51.302;6.354;2022-09-27T17:02:57;7.57;;;2.72;;
27375;SDS011;14844;51.302;6.354;2022-09-27T17:05:23;12.75;;;2.75;;
27375;SDS011;14844;51.302;6.354;2022-09-27T17:07:49;17.08;;;3.28;;
27375;SDS011;14844;51.302;6.354;2022-09-27T17:10:19;9.00;;;3.08;;
27375;SDS011;14844;51.302;6.354;2022-09-27T17:12:45;10.32;;;2.97;;
27375;SDS011;14844;51.302;6.354;2022-09-27T17:15:11;8.07;;;2.67;;
27375;SDS011;14844;51.302;6.354;2022-09-27T17:17:37;10.32;;;2.97;;
27375;SDS011;14844;51.302;6.354;2022-09-27T17:20:03;10.32;;;2.65;;
27375;SDS011;14844;51.302;6.354;2022-09-27T17:22:29;7.22;;;2.67;;
27375;SDS011;14844;51.302;6.354;2022-09-27T17:24:55;15.10;;;3.08;;
27375;SDS011;14844;51.302;6.354;2022-09-27T17:27:21;10.35;;;3.28;;
27375;SDS011;14844;51.302;6.354;2022-09-27T17:29:49;17.75;;;6.10;;
27375;SDS011;14844;51.302;6.354;2022-09-27T17:32:14;10.60;;;3.90;;
27375;SDS011;14844;51.302;6.354;2022-09-27T17:34:40;7.25;;;3.45;;
27375;SDS011;14844;51.302;6.354;2022-09-27T17:37:07;11.00;;;3.72;;
27375;SDS011;14844;51.302;6.354;2022-09-27T17:39:34;7.70;;;2.97;;
27375;SDS011;14844;51.302;6.354;2022-09-27T17:42:00;10.10;;;3.65;;
27375;SDS011;14844;51.302;6.354;2022-09-27T17:44:26;10.98;;;3.47;;